createdAt,value
2023-05-16T00:00:39.097Z,3912.00
2023-05-16T00:01:39.260Z,3897.00
2023-05-16T00:02:39.282Z,3897.00
2023-05-16T00:03:39.381Z,3885.00
2023-05-16T00:04:39.391Z,3886.00
2023-05-16T00:05:39.436Z,3866.00
2023-05-16T00:06:39.430Z,3874.00
2023-05-16T00:07:39.531Z,3873.00
2023-05-16T00:08:39.576Z,3862.00
2023-05-16T00:09:39.649Z,3865.00
2023-05-16T00:10:39.680Z,3862.00
2023-05-16T00:11:39.748Z,3843.00
2023-05-16T00:12:39.801Z,3832.00
2023-05-16T00:13:39.868Z,3858.00
2023-05-16T00:14:39.945Z,3834.00
2023-05-16T00:15:40.006Z,3850.00
2023-05-16T00:16:40.089Z,3842.00
2023-05-16T00:17:40.123Z,3832.00
2023-05-16T00:18:40.215Z,3831.00
2023-05-16T00:19:40.226Z,3834.00
2023-05-16T00:20:40.267Z,3820.00
2023-05-16T00:21:40.335Z,3820.00
2023-05-16T00:22:40.397Z,3817.00
2023-05-16T00:23:40.471Z,3817.00
2023-05-16T00:24:40.524Z,3816.00
2023-05-16T00:25:40.599Z,3807.00
2023-05-16T00:26:40.610Z,3822.00
2023-05-16T00:27:40.676Z,3800.00
2023-05-16T00:28:40.721Z,3790.00
2023-05-16T00:29:40.764Z,3790.00
2023-05-16T00:30:40.853Z,3789.00
2023-05-16T00:31:40.962Z,3788.00
2023-05-16T00:32:40.957Z,3775.00
2023-05-16T00:33:41.033Z,3786.00
2023-05-16T00:34:41.133Z,3780.00
2023-05-16T00:35:41.119Z,3781.00
2023-05-16T00:36:41.162Z,3787.00
2023-05-16T00:37:41.228Z,3766.00
2023-05-16T00:38:41.295Z,3767.00
2023-05-16T00:39:41.319Z,3754.00
2023-05-16T00:40:41.382Z,3755.00
2023-05-16T00:41:41.440Z,3764.00
2023-05-16T00:42:41.505Z,3756.00
2023-05-16T00:43:41.567Z,3759.00
2023-05-16T00:44:41.578Z,3757.00
2023-05-16T00:45:41.653Z,3758.00
2023-05-16T00:46:41.831Z,3742.00
2023-05-16T00:47:42.557Z,3746.00
2023-05-16T00:48:41.865Z,3735.00
2023-05-16T00:49:41.909Z,3724.00
2023-05-16T00:50:41.906Z,3735.00
2023-05-16T00:51:41.975Z,3730.00
2023-05-16T00:52:42.034Z,3711.00
2023-05-16T00:53:42.147Z,3734.00
2023-05-16T00:54:42.099Z,3698.00
2023-05-16T00:55:42.185Z,3717.00
2023-05-16T00:56:42.252Z,3707.00
2023-05-16T00:57:42.303Z,3708.00
2023-05-16T00:58:42.342Z,3695.00
2023-05-16T00:59:42.371Z,3687.00
2023-05-16T01:00:42.462Z,3693.00
2023-05-16T01:01:42.522Z,3683.00
2023-05-16T01:02:42.598Z,3691.00
2023-05-16T01:03:42.737Z,3686.00
2023-05-16T01:04:42.709Z,3666.00
2023-05-16T01:05:42.698Z,3662.00
2023-05-16T01:06:42.716Z,3675.00
2023-05-16T01:07:42.807Z,3661.00
2023-05-16T01:08:42.848Z,3662.00
2023-05-16T01:09:42.881Z,3664.00
2023-05-16T01:10:42.953Z,3668.00
2023-05-16T01:11:43.007Z,3670.00
2023-05-16T01:12:43.063Z,3664.00
2023-05-16T01:13:43.103Z,3651.00
2023-05-16T01:14:43.187Z,3655.00
2023-05-16T01:15:43.274Z,3647.00
2023-05-16T01:16:43.285Z,3631.00
2023-05-16T01:17:43.364Z,3635.00
2023-05-16T01:18:43.464Z,3638.00
2023-05-16T01:19:43.431Z,3644.00
2023-05-16T01:20:43.548Z,3621.00
2023-05-16T01:21:43.571Z,3635.00
2023-05-16T01:22:43.590Z,3633.00
2023-05-16T01:23:43.648Z,3627.00
2023-05-16T01:24:43.728Z,3625.00
2023-05-16T01:25:43.774Z,3626.00
2023-05-16T01:26:43.815Z,3617.00
2023-05-16T01:27:43.892Z,3610.00
2023-05-16T01:28:43.998Z,3621.00
2023-05-16T01:29:44.005Z,3601.00
2023-05-16T01:30:44.067Z,3600.00
2023-05-16T01:31:44.169Z,3607.00
2023-05-16T01:32:44.240Z,3606.00
2023-05-16T01:33:44.247Z,3598.00
2023-05-16T01:34:44.283Z,3592.00
2023-05-16T01:35:44.319Z,3607.00
2023-05-16T01:36:44.419Z,3585.00
2023-05-16T01:37:44.442Z,3564.00
2023-05-16T01:38:44.510Z,3571.00
2023-05-16T01:39:44.588Z,3570.00
2023-05-16T01:40:44.623Z,3565.00
2023-05-16T01:41:44.700Z,3580.00
2023-05-16T01:42:44.740Z,3539.00
2023-05-16T01:43:44.812Z,3563.00
2023-05-16T01:44:44.865Z,3566.00
2023-05-16T01:45:44.940Z,3555.00
2023-05-16T01:46:44.972Z,3543.00
2023-05-16T01:47:45.081Z,3552.00
2023-05-16T01:48:45.074Z,3528.00
2023-05-16T01:49:45.127Z,3535.00
2023-05-16T01:50:45.181Z,3539.00
2023-05-16T01:51:45.236Z,3527.00
2023-05-16T01:52:45.284Z,3518.00
2023-05-16T01:53:45.377Z,3523.00
2023-05-16T01:54:45.416Z,3508.00
2023-05-16T01:55:45.441Z,3506.00
2023-05-16T01:56:45.525Z,3499.00
2023-05-16T01:57:45.569Z,3516.00
2023-05-16T01:58:45.636Z,3499.00
2023-05-16T01:59:45.700Z,3510.00
2023-05-16T02:00:45.790Z,3511.00
2023-05-16T02:01:45.786Z,3493.00
2023-05-16T02:02:45.892Z,3505.00
2023-05-16T02:03:45.999Z,3497.00
2023-05-16T02:04:45.930Z,3487.00
2023-05-16T02:05:45.988Z,3488.00
2023-05-16T02:06:46.050Z,3489.00
2023-05-16T02:07:46.113Z,3494.00
2023-05-16T02:08:46.181Z,3485.00
2023-05-16T02:09:46.250Z,3479.00
2023-05-16T02:10:46.286Z,3495.00
2023-05-16T02:11:46.320Z,3482.00
2023-05-16T02:12:46.396Z,3481.00
2023-05-16T02:13:46.465Z,3457.00
2023-05-16T02:14:46.516Z,3458.00
2023-05-16T02:15:46.558Z,3467.00
2023-05-16T02:16:46.729Z,3468.00
2023-05-16T02:17:46.697Z,3454.00
2023-05-16T02:18:46.773Z,3447.00
2023-05-16T02:19:46.762Z,3445.00
2023-05-16T02:20:46.811Z,3437.00
2023-05-16T02:21:46.863Z,3447.00
2023-05-16T02:22:46.961Z,3442.00
2023-05-16T02:23:47.018Z,3448.00
2023-05-16T02:24:47.052Z,3445.00
2023-05-16T02:25:47.120Z,3437.00
2023-05-16T02:26:47.179Z,3424.00
2023-05-16T02:27:47.195Z,3441.00
2023-05-16T02:28:47.275Z,3437.00
2023-05-16T02:29:47.315Z,3433.00
2023-05-16T02:30:47.396Z,3421.00
2023-05-16T02:31:47.465Z,3415.00
2023-05-16T02:32:47.561Z,3426.00
2023-05-16T02:33:47.577Z,3417.00
2023-05-16T02:34:47.637Z,3425.00
2023-05-16T02:35:47.692Z,3426.00
2023-05-16T02:36:47.696Z,3386.00
2023-05-16T02:37:47.792Z,3398.00
2023-05-16T02:38:47.870Z,3403.00
2023-05-16T02:39:47.912Z,3384.00
2023-05-16T02:40:47.988Z,3397.00
2023-05-16T02:41:48.048Z,3398.00
2023-05-16T02:42:48.099Z,3404.00
2023-05-16T02:43:48.137Z,3384.00
2023-05-16T02:44:48.179Z,3382.00
2023-05-16T02:45:48.322Z,3378.00
2023-05-16T02:46:48.416Z,3372.00
2023-05-16T02:47:48.391Z,3384.00
2023-05-16T02:48:48.436Z,3365.00
2023-05-16T02:49:48.442Z,3377.00
2023-05-16T02:50:48.539Z,3361.00
2023-05-16T02:51:48.576Z,3353.00
2023-05-16T02:52:48.623Z,3369.00
2023-05-16T02:53:48.694Z,3360.00
2023-05-16T02:54:56.128Z,3363.00
2023-05-16T02:55:49.745Z,3363.00
2023-05-16T02:56:48.729Z,3363.00
2023-05-16T02:57:48.702Z,3364.00
2023-05-16T02:58:48.751Z,3350.00
2023-05-16T02:59:48.689Z,3359.00
2023-05-16T03:00:48.702Z,3368.00
2023-05-16T03:01:48.758Z,3334.00
2023-05-16T03:02:48.756Z,3340.00
2023-05-16T03:03:48.820Z,3347.00
2023-05-16T03:04:48.655Z,3342.00
2023-05-16T03:05:48.711Z,3337.00
2023-05-16T03:06:48.769Z,3339.00
2023-05-16T03:07:48.813Z,3335.00
2023-05-16T03:08:48.886Z,3341.00
2023-05-16T03:09:48.885Z,3327.00
2023-05-16T03:10:48.951Z,3325.00
2023-05-16T03:11:49.012Z,3324.00
2023-05-16T03:12:49.060Z,3334.00
2023-05-16T03:13:49.113Z,3319.00
2023-05-16T03:14:49.171Z,3324.00
2023-05-16T03:15:49.211Z,3292.00
2023-05-16T03:16:49.346Z,3310.00
2023-05-16T03:17:49.368Z,3305.00
2023-05-16T03:18:49.415Z,3312.00
2023-05-16T03:19:49.435Z,3315.00
2023-05-16T03:20:49.514Z,3302.00
2023-05-16T03:21:49.539Z,3301.00
2023-05-16T03:22:49.628Z,3291.00
2023-05-16T03:23:49.746Z,3296.00
2023-05-16T03:24:49.742Z,3282.00
2023-05-16T03:25:49.778Z,3280.00
2023-05-16T03:26:49.885Z,3284.00
2023-05-16T03:27:49.886Z,3289.00
2023-05-16T03:28:49.946Z,3277.00
2023-05-16T03:29:49.994Z,3267.00
2023-05-16T03:30:50.085Z,3261.00
2023-05-16T03:31:50.126Z,3283.00
2023-05-16T03:32:50.202Z,3267.00
2023-05-16T03:33:50.211Z,3275.00
2023-05-16T03:34:50.292Z,3265.00
2023-05-16T03:35:50.332Z,3254.00
2023-05-16T03:36:50.408Z,3255.00
2023-05-16T03:37:50.470Z,3272.00
2023-05-16T03:38:50.507Z,3259.00
2023-05-16T03:39:50.555Z,3238.00
2023-05-16T03:40:50.607Z,3233.00
2023-05-16T03:41:50.671Z,3233.00
2023-05-16T03:42:50.745Z,3250.00
2023-05-16T03:43:50.805Z,3247.00
2023-05-16T03:44:50.797Z,3234.00
2023-05-16T03:45:50.933Z,3237.00
2023-05-16T03:46:50.915Z,3236.00
2023-05-16T03:47:51.056Z,3213.00
2023-05-16T03:48:51.025Z,3226.00
2023-05-16T03:49:51.070Z,3219.00
2023-05-16T03:50:51.106Z,3222.00
2023-05-16T03:51:51.165Z,3233.00
2023-05-16T03:52:51.229Z,3215.00
2023-05-16T03:53:51.307Z,3225.00
2023-05-16T03:54:51.325Z,3215.00
2023-05-16T03:55:51.398Z,3223.00
2023-05-16T03:56:51.424Z,3208.00
2023-05-16T03:57:51.492Z,3198.00
2023-05-16T03:58:51.547Z,3200.00
2023-05-16T03:59:51.593Z,3203.00
2023-05-16T04:00:51.661Z,3187.00
2023-05-16T04:01:51.733Z,3202.00
2023-05-16T04:02:51.934Z,3200.00
2023-05-16T04:03:51.821Z,3190.00
2023-05-16T04:04:51.855Z,3194.00
2023-05-16T04:05:51.941Z,3193.00
2023-05-16T04:06:51.963Z,3200.00
2023-05-16T04:07:52.034Z,3197.00
2023-05-16T04:08:52.128Z,3184.00
2023-05-16T04:09:52.125Z,3185.00
2023-05-16T04:10:52.198Z,3185.00
2023-05-16T04:11:52.383Z,3160.00
2023-05-16T04:12:52.326Z,3171.00
2023-05-16T04:13:52.374Z,3181.00
2023-05-16T04:14:52.395Z,3160.00
2023-05-16T04:15:52.453Z,3174.00
2023-05-16T04:16:52.524Z,3172.00
2023-05-16T04:17:52.567Z,3156.00
2023-05-16T04:18:52.624Z,3162.00
2023-05-16T04:19:52.695Z,3171.00
2023-05-16T04:20:52.740Z,3159.00
2023-05-16T04:21:52.798Z,3160.00
2023-05-16T04:22:52.832Z,3137.00
2023-05-16T04:23:52.887Z,3146.00
2023-05-16T04:24:52.929Z,3140.00
2023-05-16T04:25:52.986Z,3146.00
2023-05-16T04:26:53.034Z,3141.00
2023-05-16T04:27:53.084Z,3146.00
2023-05-16T04:28:53.135Z,3126.00
2023-05-16T04:29:53.175Z,3139.00
2023-05-16T04:30:53.223Z,3137.00
2023-05-16T04:31:53.318Z,3132.00
2023-05-16T04:32:53.389Z,3131.00
2023-05-16T04:33:53.391Z,3142.00
2023-05-16T04:34:53.453Z,3133.00
2023-05-16T04:35:53.496Z,3115.00
2023-05-16T04:36:53.565Z,3103.00
2023-05-16T04:37:53.595Z,3103.00
2023-05-16T04:38:53.635Z,3106.00
2023-05-16T04:39:53.672Z,3078.00
2023-05-16T04:40:53.708Z,3091.00
2023-05-16T04:41:53.794Z,3075.00
2023-05-16T04:42:53.879Z,3085.00
2023-05-16T04:43:53.878Z,3095.00
2023-05-16T04:44:53.927Z,3072.00
2023-05-16T04:45:54.081Z,3081.00
2023-05-16T04:46:54.155Z,3083.00
2023-05-16T04:47:54.153Z,3071.00
2023-05-16T04:48:54.150Z,3082.00
2023-05-16T04:49:54.183Z,3074.00
2023-05-16T04:50:54.265Z,3079.00
2023-05-16T04:51:54.294Z,3072.00
2023-05-16T04:52:56.427Z,3058.00
2023-05-16T04:53:54.414Z,3015.00
2023-05-16T04:54:54.469Z,2999.00
2023-05-16T04:55:54.519Z,2988.00
2023-05-16T04:56:54.546Z,2963.00
2023-05-16T04:57:54.562Z,2955.00
2023-05-16T04:58:54.565Z,2934.00
2023-05-16T04:59:54.551Z,2924.00
2023-05-16T05:02:21.069Z,500.00
2023-05-16T05:03:13.417Z,500.00
2023-05-16T05:04:13.392Z,500.00
2023-05-16T05:05:13.426Z,500.00
2023-05-16T05:06:13.430Z,500.00
2023-05-16T05:07:13.339Z,500.00
2023-05-16T05:08:13.363Z,502.00
2023-05-16T05:09:13.327Z,500.00
2023-05-16T05:10:13.335Z,503.00
2023-05-16T05:11:13.346Z,504.00
2023-05-16T05:12:13.364Z,508.00
2023-05-16T05:13:13.411Z,500.00
2023-05-16T05:14:13.321Z,502.00
2023-05-16T05:15:13.303Z,518.00
2023-05-16T05:16:13.330Z,529.00
2023-05-16T05:17:13.348Z,527.00
2023-05-16T05:18:13.421Z,512.00
2023-05-16T05:19:13.356Z,512.00
2023-05-16T05:20:13.247Z,503.00
2023-05-16T05:21:13.314Z,505.00
2023-05-16T05:22:13.244Z,512.00
2023-05-16T05:23:13.270Z,510.00
2023-05-16T05:24:13.271Z,519.00
2023-05-16T05:25:13.231Z,522.00
2023-05-16T05:26:13.247Z,513.00
2023-05-16T05:27:13.248Z,531.00
2023-05-16T05:28:13.263Z,539.00
2023-05-16T05:29:13.217Z,548.00
2023-05-16T05:30:13.287Z,540.00
2023-05-16T05:31:13.412Z,534.00
2023-05-16T05:32:13.420Z,516.00
2023-05-16T05:33:13.445Z,763.00
2023-05-16T05:34:13.619Z,628.00
2023-05-16T05:35:13.460Z,600.00
2023-05-16T05:36:13.409Z,591.00
2023-05-16T05:37:13.413Z,555.00
2023-05-16T05:38:13.524Z,542.00
2023-05-16T05:39:13.642Z,548.00
2023-05-16T05:40:13.483Z,585.00
2023-05-16T05:41:13.552Z,593.00
2023-05-16T05:42:13.544Z,593.00
2023-05-16T05:43:14.519Z,620.00
2023-05-16T05:44:13.605Z,604.00
2023-05-16T05:45:13.602Z,590.00
2023-05-16T05:46:21.164Z,588.00
2023-05-16T05:47:13.681Z,586.00
2023-05-16T05:48:13.722Z,564.00
2023-05-16T05:49:14.143Z,581.00
2023-05-16T05:50:13.636Z,545.00
2023-05-16T05:51:13.616Z,535.00
2023-05-16T05:52:13.632Z,560.00
2023-05-16T05:53:13.806Z,576.00
2023-05-16T05:54:13.597Z,578.00
2023-05-16T05:55:21.657Z,582.00
2023-05-16T05:56:13.626Z,583.00
2023-05-16T05:57:13.572Z,584.00
2023-05-16T05:58:13.594Z,573.00
2023-05-16T05:59:13.607Z,571.00
2023-05-16T06:00:13.807Z,596.00
2023-05-16T06:01:13.672Z,625.00
2023-05-16T06:02:13.632Z,642.00
2023-05-16T06:03:13.606Z,645.00
2023-05-16T06:04:13.748Z,647.00
2023-05-16T06:05:13.749Z,662.00
2023-05-16T06:06:13.676Z,653.00
2023-05-16T06:07:13.665Z,646.00
2023-05-16T06:08:14.067Z,640.00
2023-05-16T06:09:13.743Z,627.00
2023-05-16T06:10:14.189Z,622.00
2023-05-16T06:11:13.794Z,627.00
2023-05-16T06:12:13.815Z,611.00
2023-05-16T06:13:13.870Z,610.00
2023-05-16T06:14:13.843Z,624.00
2023-05-16T06:15:13.892Z,639.00
2023-05-16T06:16:13.875Z,633.00
2023-05-16T06:17:14.001Z,623.00
2023-05-16T06:18:13.907Z,620.00
2023-05-16T06:19:13.906Z,619.00
2023-05-16T06:20:13.826Z,608.00
2023-05-16T06:21:13.826Z,604.00
2023-05-16T06:22:14.146Z,601.00
2023-05-16T06:23:13.845Z,590.00
2023-05-16T06:24:13.821Z,592.00
2023-05-16T06:25:13.839Z,601.00
2023-05-16T06:26:13.883Z,679.00
2023-05-16T06:27:13.821Z,1104.00
2023-05-16T06:28:13.848Z,1402.00
2023-05-16T06:29:13.840Z,1500.00
2023-05-16T06:30:14.208Z,1482.00
2023-05-16T06:31:13.898Z,1475.00
2023-05-16T06:32:13.864Z,1450.00
2023-05-16T06:33:13.911Z,1381.00
2023-05-16T06:34:13.893Z,1295.00
2023-05-16T06:35:13.942Z,1282.00
2023-05-16T06:36:13.983Z,1200.00
2023-05-16T06:37:14.104Z,1203.00
2023-05-16T06:38:14.049Z,1189.00
2023-05-16T06:39:14.109Z,1123.00
2023-05-16T06:40:14.760Z,1012.00
2023-05-16T06:41:14.230Z,955.00
2023-05-16T06:42:14.264Z,894.00
2023-05-16T06:43:14.332Z,873.00
2023-05-16T06:44:14.309Z,882.00
2023-05-16T06:45:14.668Z,868.00
2023-05-16T06:46:14.351Z,894.00
2023-05-16T06:47:14.384Z,868.00
2023-05-16T06:48:14.444Z,886.00
2023-05-16T06:49:14.376Z,881.00
2023-05-16T06:50:14.445Z,870.00
2023-05-16T06:51:14.465Z,873.00
2023-05-16T06:52:14.848Z,869.00
2023-05-16T06:53:14.516Z,860.00
2023-05-16T06:54:14.594Z,847.00
2023-05-16T06:55:14.587Z,834.00
2023-05-16T06:56:14.707Z,820.00
2023-05-16T06:57:14.644Z,815.00
2023-05-16T06:58:14.719Z,802.00
2023-05-16T06:59:14.708Z,795.00
2023-05-16T07:00:15.182Z,782.00
2023-05-16T07:01:14.794Z,808.00
2023-05-16T07:02:14.829Z,790.00
2023-05-16T07:03:14.910Z,799.00
2023-05-16T07:04:14.953Z,797.00
2023-05-16T07:05:15.231Z,806.00
2023-05-16T07:06:15.301Z,783.00
2023-05-16T07:07:14.915Z,792.00
2023-05-16T07:08:14.975Z,767.00
2023-05-16T07:09:14.993Z,794.00
2023-05-16T07:10:15.043Z,790.00
2023-05-16T07:11:15.100Z,803.00
2023-05-16T07:12:15.070Z,806.00
2023-05-16T07:13:15.106Z,810.00
2023-05-16T07:14:15.126Z,788.00
2023-05-16T07:15:15.132Z,786.00
2023-05-16T07:16:15.227Z,772.00
2023-05-16T07:17:15.199Z,779.00
2023-05-16T07:19:15.301Z,784.00
2023-05-16T07:20:15.324Z,784.00
2023-05-16T07:21:15.380Z,782.00
2023-05-16T07:22:15.439Z,790.00
2023-05-16T07:23:15.488Z,790.00
2023-05-16T07:24:15.536Z,790.00
2023-05-16T07:25:15.717Z,786.00
2023-05-16T07:26:15.693Z,771.00
2023-05-16T07:27:15.714Z,671.00
2023-05-16T07:28:15.742Z,683.00
2023-05-16T07:29:15.853Z,756.00
2023-05-16T07:30:16.315Z,773.00
2023-05-16T07:31:16.056Z,846.00
2023-05-16T07:32:16.190Z,845.00
2023-05-16T07:33:16.038Z,1005.00
2023-05-16T07:34:16.113Z,1011.00
2023-05-16T07:35:16.118Z,1029.00
2023-05-16T07:36:17.529Z,957.00
2023-05-16T07:37:16.271Z,869.00
2023-05-16T07:38:16.285Z,780.00
2023-05-16T07:39:16.306Z,716.00
2023-05-16T07:40:16.327Z,679.00
2023-05-16T07:41:16.388Z,656.00
2023-05-16T07:42:16.497Z,678.00
2023-05-16T07:43:16.537Z,777.00
2023-05-16T07:44:16.546Z,784.00
2023-05-16T07:45:16.610Z,762.00
2023-05-16T07:46:16.656Z,712.00
2023-05-16T07:47:16.660Z,742.00
2023-05-16T07:48:16.628Z,678.00
2023-05-16T07:49:16.640Z,657.00
2023-05-16T07:50:16.668Z,646.00
2023-05-16T07:51:16.744Z,647.00
2023-05-16T07:52:16.756Z,645.00
2023-05-16T07:53:16.733Z,641.00
2023-05-16T07:54:16.830Z,629.00
2023-05-16T07:55:16.850Z,607.00
2023-05-16T07:56:16.816Z,601.00
2023-05-16T07:57:16.857Z,613.00
2023-05-16T07:58:16.856Z,625.00
2023-05-16T07:59:16.943Z,625.00
2023-05-16T08:00:16.964Z,632.00
2023-05-16T08:01:17.010Z,630.00
2023-05-16T08:02:17.005Z,625.00
2023-05-16T08:03:17.110Z,600.00
2023-05-16T08:04:17.135Z,594.00
2023-05-16T08:05:17.068Z,567.00
2023-05-16T08:06:17.421Z,558.00
2023-05-16T08:07:17.136Z,546.00
2023-05-16T08:08:17.162Z,536.00
2023-05-16T08:09:17.196Z,539.00
2023-05-16T08:10:17.336Z,540.00
2023-05-16T08:11:17.334Z,535.00
2023-05-16T08:12:17.367Z,533.00
2023-05-16T08:13:17.395Z,511.00
2023-05-16T08:14:17.453Z,500.00
2023-05-16T08:15:17.568Z,497.00
2023-05-16T08:16:17.780Z,499.00
2023-05-16T08:17:17.666Z,500.00
2023-05-16T08:18:18.854Z,509.00
2023-05-16T08:19:17.698Z,521.00
2023-05-16T08:20:17.644Z,523.00
2023-05-16T08:21:17.776Z,504.00
2023-05-16T08:22:17.687Z,500.00
2023-05-16T08:23:17.597Z,504.00
2023-05-16T08:24:18.411Z,504.00
2023-05-16T08:25:17.617Z,511.00
2023-05-16T08:26:17.901Z,513.00
2023-05-16T08:27:17.586Z,506.00
2023-05-16T08:28:17.617Z,509.00
2023-05-16T08:29:17.654Z,529.00
2023-05-16T08:30:17.619Z,545.00
2023-05-16T08:31:17.741Z,546.00
2023-05-16T08:32:17.726Z,554.00
2023-05-16T08:33:17.600Z,545.00
2023-05-16T08:34:17.643Z,723.00
2023-05-16T08:35:17.546Z,700.00
2023-05-16T08:36:18.683Z,735.00
2023-05-16T08:37:17.566Z,745.00
2023-05-16T08:38:17.579Z,671.00
2023-05-16T08:39:17.559Z,656.00
2023-05-16T08:40:17.526Z,628.00
2023-05-16T08:41:17.684Z,606.00
2023-05-16T08:42:17.528Z,589.00
2023-05-16T08:43:17.513Z,606.00
2023-05-16T08:44:17.467Z,597.00
2023-05-16T08:45:17.434Z,568.00
2023-05-16T08:46:18.176Z,555.00
2023-05-16T08:47:17.640Z,531.00
2023-05-16T08:48:17.513Z,517.00
2023-05-16T08:49:17.443Z,510.00
2023-05-16T08:50:17.486Z,508.00
2023-05-16T08:51:17.445Z,568.00
2023-05-16T08:52:17.397Z,532.00
2023-05-16T08:53:17.387Z,499.00
2023-05-16T08:54:17.367Z,500.00
2023-05-16T08:55:17.405Z,503.00
2023-05-16T08:56:17.389Z,505.00
2023-05-16T08:57:17.386Z,509.00
2023-05-16T08:58:17.370Z,516.00
2023-05-16T08:59:17.409Z,513.00
2023-05-16T09:00:17.426Z,500.00
2023-05-16T09:01:17.809Z,506.00
2023-05-16T09:02:17.462Z,518.00
2023-05-16T09:03:17.598Z,515.00
2023-05-16T09:04:17.524Z,527.00
2023-05-16T09:05:17.581Z,532.00
2023-05-16T09:06:17.550Z,530.00
2023-05-16T09:07:17.526Z,521.00
2023-05-16T09:08:17.595Z,499.00
2023-05-16T09:09:17.571Z,500.00
2023-05-16T09:10:17.624Z,504.00
2023-05-16T09:11:17.734Z,511.00
2023-05-16T09:12:17.592Z,500.00
2023-05-16T09:13:17.611Z,500.00
2023-05-16T09:14:17.605Z,500.00
2023-05-16T09:15:17.613Z,558.00
2023-05-16T09:16:17.890Z,612.00
2023-05-16T09:17:20.492Z,580.00
2023-05-16T09:18:18.646Z,550.00
2023-05-16T09:19:17.653Z,495.00
2023-05-16T09:20:17.570Z,457.00
2023-05-16T09:21:17.756Z,407.00
2023-05-16T09:22:17.606Z,400.00
2023-05-16T09:23:17.589Z,404.00
2023-05-16T09:24:17.620Z,446.00
2023-05-16T09:25:28.591Z,499.00
2023-05-16T09:26:18.575Z,499.00
2023-05-16T09:27:19.243Z,468.00
2023-05-16T09:28:17.635Z,437.00
2023-05-16T09:29:17.614Z,414.00
2023-05-16T09:30:17.593Z,406.00
2023-05-16T09:31:17.654Z,449.00
2023-05-16T09:32:17.645Z,491.00
2023-05-16T09:33:17.649Z,508.00
2023-05-16T09:34:17.558Z,504.00
2023-05-16T09:35:21.768Z,505.00
2023-05-16T09:36:18.546Z,494.00
2023-05-16T09:37:17.503Z,457.00
2023-05-16T09:38:17.773Z,443.00
2023-05-16T09:39:17.471Z,482.00
2023-05-16T09:40:17.490Z,518.00
2023-05-16T09:41:17.814Z,547.00
2023-05-16T09:42:17.518Z,545.00
2023-05-16T09:43:18.306Z,546.00
2023-05-16T09:44:17.494Z,555.00
2023-05-16T09:45:17.425Z,553.00
2023-05-16T09:46:17.821Z,550.00
2023-05-16T09:47:17.445Z,606.00
2023-05-16T09:48:17.490Z,655.00
2023-05-16T09:49:17.394Z,635.00
2023-05-16T09:50:17.658Z,613.00
2023-05-16T09:51:17.437Z,582.00
2023-05-16T09:52:17.376Z,580.00
2023-05-16T09:53:17.378Z,582.00
2023-05-16T09:54:17.351Z,568.00
2023-05-16T09:55:17.401Z,594.00
2023-05-16T09:56:17.364Z,609.00
2023-05-16T09:57:17.456Z,623.00
2023-05-16T09:58:17.412Z,593.00
2023-05-16T09:59:17.455Z,579.00
2023-05-16T10:00:17.534Z,584.00
2023-05-16T10:01:17.694Z,582.00
2023-05-16T10:02:17.654Z,552.00
2023-05-16T10:03:17.679Z,524.00
2023-05-16T10:04:17.689Z,499.00
2023-05-16T10:05:17.668Z,498.00
2023-05-16T10:06:17.672Z,506.00
2023-05-16T10:07:17.694Z,539.00
2023-05-16T10:08:17.703Z,545.00
2023-05-16T10:09:17.730Z,547.00
2023-05-16T10:10:17.782Z,560.00
2023-05-16T10:11:17.758Z,547.00
2023-05-16T10:12:18.293Z,495.00
2023-05-16T10:13:17.791Z,481.00
2023-05-16T10:14:17.824Z,500.00
2023-05-16T10:15:17.805Z,537.00
2023-05-16T10:16:17.823Z,565.00
2023-05-16T10:17:17.808Z,576.00
2023-05-16T10:18:17.936Z,592.00
2023-05-16T10:19:17.902Z,595.00
2023-05-16T10:20:17.882Z,639.00
2023-05-16T10:21:17.822Z,666.00
2023-05-16T10:22:18.271Z,681.00
2023-05-16T10:23:17.793Z,743.00
2023-05-16T10:24:17.796Z,872.00
2023-05-16T10:25:17.817Z,986.00
2023-05-16T10:26:17.846Z,1011.00
2023-05-16T10:27:19.361Z,1021.00
2023-05-16T10:28:17.814Z,1065.00
2023-05-16T10:29:17.826Z,1077.00
2023-05-16T10:30:17.909Z,1092.00
2023-05-16T10:31:18.392Z,1133.00
2023-05-16T10:32:18.067Z,1171.00
2023-05-16T10:33:18.024Z,1177.00
2023-05-16T10:34:17.971Z,1296.00
2023-05-16T10:35:18.044Z,1299.00
2023-05-16T10:36:18.156Z,1235.00
2023-05-16T10:37:18.272Z,1143.00
2023-05-16T10:38:18.287Z,1183.00
2023-05-16T10:39:18.378Z,1225.00
2023-05-16T10:40:18.356Z,1753.00
2023-05-16T10:41:18.400Z,1635.00
2023-05-16T10:42:19.490Z,1547.00
2023-05-16T10:43:18.501Z,1519.00
2023-05-16T10:44:18.651Z,1462.00
2023-05-16T10:45:18.618Z,1286.00
2023-05-16T10:46:18.744Z,1282.00
2023-05-16T10:47:18.697Z,1284.00
2023-05-16T10:48:18.696Z,1269.00
2023-05-16T10:49:18.707Z,1260.00
2023-05-16T10:50:18.704Z,1177.00
2023-05-16T10:51:18.699Z,1124.00
2023-05-16T10:52:18.819Z,1124.00
2023-05-16T10:53:18.782Z,1086.00
2023-05-16T10:54:18.787Z,1078.00
2023-05-16T10:55:18.832Z,1175.00
2023-05-16T10:56:18.825Z,1238.00
2023-05-16T10:57:19.265Z,1238.00
2023-05-16T10:58:19.779Z,1187.00
2023-05-16T10:59:18.836Z,1226.00
2023-05-16T11:00:18.900Z,1213.00
2023-05-16T11:01:18.927Z,1155.00
2023-05-16T11:02:19.349Z,1177.00
2023-05-16T11:03:18.930Z,1212.00
2023-05-16T11:04:18.850Z,1212.00
2023-05-16T11:05:18.867Z,1252.00
2023-05-16T11:06:20.485Z,1234.00
2023-05-16T11:07:19.292Z,1187.00
2023-05-16T11:08:18.954Z,1159.00
2023-05-16T11:09:18.996Z,1069.00
2023-05-16T11:10:18.943Z,1015.00
2023-05-16T11:11:18.938Z,952.00
2023-05-16T11:12:18.952Z,960.00
2023-05-16T11:13:18.955Z,898.00
2023-05-16T11:14:18.964Z,884.00
2023-05-16T11:15:18.981Z,778.00
2023-05-16T11:16:19.013Z,661.00
2023-05-16T11:17:27.169Z,665.00
2023-05-16T11:18:19.146Z,665.00
2023-05-16T11:19:19.108Z,673.00
2023-05-16T11:20:18.994Z,714.00
2023-05-16T11:21:18.957Z,742.00
2023-05-16T11:22:19.408Z,754.00
2023-05-16T11:23:18.947Z,767.00
2023-05-16T11:24:20.943Z,749.00
2023-05-16T11:25:19.203Z,786.00
2023-05-16T11:26:19.210Z,861.00
2023-05-16T11:27:19.281Z,880.00
2023-05-16T11:28:19.223Z,899.00
2023-05-16T11:29:19.225Z,922.00
2023-05-16T11:30:19.302Z,961.00
2023-05-16T11:31:19.362Z,1050.00
2023-05-16T11:32:19.823Z,1084.00
2023-05-16T11:33:19.440Z,1243.00
2023-05-16T11:34:19.366Z,1290.00
2023-05-16T11:35:19.395Z,1377.00
2023-05-16T11:36:19.443Z,1311.00
2023-05-16T11:37:19.932Z,1197.00
2023-05-16T11:38:19.401Z,1111.00
2023-05-16T11:39:19.486Z,1133.00
2023-05-16T11:40:19.337Z,1213.00
2023-05-16T11:41:19.407Z,1221.00
2023-05-16T11:42:19.486Z,1203.00
2023-05-16T11:43:21.272Z,1278.00
2023-05-16T11:44:19.592Z,1420.00
2023-05-16T11:45:19.598Z,1254.00
2023-05-16T11:46:19.690Z,1040.00
2023-05-16T11:47:19.737Z,1021.00
2023-05-16T11:48:32.568Z,982.00
2023-05-16T11:49:20.760Z,972.00
2023-05-16T11:50:19.889Z,771.00
2023-05-16T11:51:19.754Z,663.00
2023-05-16T11:52:19.755Z,642.00
2023-05-16T11:53:19.729Z,622.00
2023-05-16T11:54:19.786Z,642.00
2023-05-16T11:55:32.288Z,675.00
2023-05-16T11:56:20.729Z,678.00
2023-05-16T11:57:20.124Z,691.00
2023-05-16T11:58:19.733Z,716.00
2023-05-16T11:59:19.655Z,767.00
2023-05-16T12:00:19.686Z,811.00
2023-05-16T12:01:19.687Z,821.00
2023-05-16T12:02:19.675Z,805.00
2023-05-16T12:03:19.820Z,709.00
2023-05-16T12:04:19.785Z,691.00
2023-05-16T12:05:19.724Z,784.00
2023-05-16T12:07:38.627Z,500.00
2023-05-16T12:08:38.697Z,500.00
2023-05-16T12:09:38.611Z,500.00
2023-05-16T12:10:38.579Z,500.00
2023-05-16T12:11:38.592Z,500.00
2023-05-16T12:12:38.669Z,527.00
2023-05-16T12:13:38.561Z,511.00
2023-05-16T12:14:38.825Z,500.00
2023-05-16T12:15:38.587Z,499.00
2023-05-16T12:16:38.621Z,500.00
2023-05-16T12:17:38.580Z,507.00
2023-05-16T12:18:40.013Z,520.00
2023-05-16T12:19:38.501Z,521.00
2023-05-16T12:20:38.508Z,529.00